sensor_id;sensor_type;location;lat;lon;timestamp;pressure;altitude;pressure_sealevel;temperature;humidity
17260;BME280;8746;49.230;9.220;2023-04-25T00:01:03;99289.69;;;8.12;100.00
17260;BME280;8746;49.230;9.220;2023-04-25T00:03:30;99290.59;;;8.11;100.00
17260;BME280;8746;49.230;9.220;2023-04-25T00:05:55;99286.09;;;8.13;100.00
17260;BME280;8746;49.230;9.220;2023-04-25T00:08:22;99287.16;;;8.09;100.00
17260;BME280;8746;49.230;9.220;2023-04-25T00:10:47;99282.75;;;8.10;100.00
17260;BME280;8746;49.230;9.220;2023-04-25T00:13:14;99288.25;;;8.03;100.00
17260;BME280;8746;49.230;9.220;2023-04-25T00:15:40;99291.75;;;8.04;100.00
17260;BME280;8746;49.230;9.220;2023-04-25T00:18:07;99289.06;;;8.06;100.00
17260;BME280;8746;49.230;9.220;2023-04-25T00:20:32;99294.56;;;7.99;100.00
17260;BME280;8746;49.230;9.220;2023-04-25T00:22:58;99300.72;;;8.21;100.00
17260;BME280;8746;49.230;9.220;2023-04-25T00:25:23;99295.88;;;8.10;100.00
17260;BME280;8746;49.230;9.220;2023-04-25T00:27:49;99288.31;;;8.02;100.00
17260;BME280;8746;49.230;9.220;2023-04-25T00:30:14;99285.63;;;8.03;100.00
17260;BME280;8746;49.230;9.220;2023-04-25T00:32:39;99300.00;;;7.95;100.00
17260;BME280;8746;49.230;9.220;2023-04-25T00:35:05;99292.03;;;7.96;100.00
17260;BME280;8746;49.230;9.220;2023-04-25T00:37:31;99291.03;;;8.00;100.00
17260;BME280;8746;49.230;9.220;2023-04-25T00:39:58;99281.25;;;8.04;100.00
17260;BME280;8746;49.230;9.220;2023-04-25T00:42:24;99287.34;;;8.05;100.00
17260;BME280;8746;49.230;9.220;2023-04-25T00:44:51;99286.50;;;8.04;100.00
17260;BME280;8746;49.230;9.220;2023-04-25T00:47:17;99279.59;;;8.01;100.00
17260;BME280;8746;49.230;9.220;2023-04-25T00:49:42;99282.22;;;8.01;100.00
17260;BME280;8746;49.230;9.220;2023-04-25T00:52:08;99281.75;;;7.92;100.00
17260;BME280;8746;49.230;9.220;2023-04-25T00:54:33;99277.81;;;8.02;100.00
17260;BME280;8746;49.230;9.220;2023-04-25T00:56:59;99277.41;;;7.91;100.00
17260;BME280;8746;49.230;9.220;2023-04-25T00:59:25;99271.72;;;8.01;100.00
17260;BME280;8746;49.230;9.220;2023-04-25T01:01:52;99268.78;;;7.87;100.00
17260;BME280;8746;49.230;9.220;2023-04-25T01:04:18;99272.81;;;7.96;100.00
17260;BME280;8746;49.230;9.220;2023-04-25T01:06:43;99271.25;;;7.92;100.00
17260;BME280;8746;49.230;9.220;2023-04-25T01:09:09;99273.41;;;7.80;100.00
17260;BME280;8746;49.230;9.220;2023-04-25T01:11:35;99275.28;;;7.78;100.00
17260;BME280;8746;49.230;9.220;2023-04-25T01:14:00;99276.50;;;7.92;100.00
17260;BME280;8746;49.230;9.220;2023-04-25T01:16:27;99267.00;;;7.88;100.00
17260;BME280;8746;49.230;9.220;2023-04-25T01:18:53;99266.22;;;7.85;100.00
17260;BME280;8746;49.230;9.220;2023-04-25T01:21:20;99267.16;;;7.84;100.00
17260;BME280;8746;49.230;9.220;2023-04-25T01:23:46;99263.97;;;7.76;100.00
17260;BME280;8746;49.230;9.220;2023-04-25T01:26:12;99266.59;;;7.76;100.00
17260;BME280;8746;49.230;9.220;2023-04-25T01:28:38;99269.31;;;7.73;100.00
17260;BME280;8746;49.230;9.220;2023-04-25T01:31:08;99267.06;;;7.64;100.00
17260;BME280;8746;49.230;9.220;2023-04-25T01:33:34;99266.91;;;7.68;100.00
17260;BME280;8746;49.230;9.220;2023-04-25T01:36:00;99273.78;;;7.71;100.00
17260;BME280;8746;49.230;9.220;2023-04-25T01:38:25;99281.94;;;7.63;100.00
17260;BME280;8746;49.230;9.220;2023-04-25T01:40:51;99271.59;;;7.60;100.00
17260;BME280;8746;49.230;9.220;2023-04-25T01:43:17;99265.50;;;7.60;100.00
17260;BME280;8746;49.230;9.220;2023-04-25T01:45:43;99267.97;;;7.63;100.00
17260;BME280;8746;49.230;9.220;2023-04-25T01:48:10;99270.03;;;7.54;100.00
17260;BME280;8746;49.230;9.220;2023-04-25T01:50:37;99270.09;;;7.53;100.00
17260;BME280;8746;49.230;9.220;2023-04-25T01:53:03;99267.56;;;7.51;100.00
17260;BME280;8746;49.230;9.220;2023-04-25T01:55:29;99269.25;;;7.52;100.00
17260;BME280;8746;49.230;9.220;2023-04-25T01:57:54;99268.31;;;7.53;100.00
17260;BME280;8746;49.230;9.220;2023-04-25T02:00:20;99261.41;;;7.52;100.00
17260;BME280;8746;49.230;9.220;2023-04-25T02:02:45;99258.38;;;7.62;100.00
17260;BME280;8746;49.230;9.220;2023-04-25T02:05:11;99260.00;;;7.66;100.00
17260;BME280;8746;49.230;9.220;2023-04-25T02:07:36;99253.13;;;7.62;100.00
17260;BME280;8746;49.230;9.220;2023-04-25T02:10:02;99267.06;;;7.64;100.00
17260;BME280;8746;49.230;9.220;2023-04-25T02:12:28;99260.00;;;7.66;100.00
17260;BME280;8746;49.230;9.220;2023-04-25T02:14:53;99261.69;;;7.67;100.00
17260;BME280;8746;49.230;9.220;2023-04-25T02:17:19;99263.41;;;7.68;100.00
17260;BME280;8746;49.230;9.220;2023-04-25T02:19:47;99263.56;;;7.63;100.00
17260;BME280;8746;49.230;9.220;2023-04-25T02:22:12;99258.94;;;7.70;100.00
17260;BME280;8746;49.230;9.220;2023-04-25T02:24:38;99261.75;;;7.65;100.00
17260;BME280;8746;49.230;9.220;2023-04-25T02:27:03;99256.81;;;7.58;100.00
17260;BME280;8746;49.230;9.220;2023-04-25T02:29:29;99251.81;;;7.74;100.00
17260;BME280;8746;49.230;9.220;2023-04-25T02:31:55;99262.63;;;7.66;100.00
17260;BME280;8746;49.230;9.220;2023-04-25T02:34:20;99254.38;;;7.75;100.00
17260;BME280;8746;49.230;9.220;2023-04-25T02:36:45;99259.06;;;7.67;100.00
17260;BME280;8746;49.230;9.220;2023-04-25T02:39:11;99262.56;;;7.67;100.00
17260;BME280;8746;49.230;9.220;2023-04-25T02:41:36;99261.34;;;7.76;100.00
17260;BME280;8746;49.230;9.220;2023-04-25T02:44:02;99251.81;;;7.74;100.00
17260;BME280;8746;49.230;9.220;2023-04-25T02:46:27;99250.72;;;7.79;100.00
17260;BME280;8746;49.230;9.220;2023-04-25T02:48:52;99247.88;;;7.84;100.00
17260;BME280;8746;49.230;9.220;2023-04-25T02:51:18;99252.41;;;7.80;100.00
17260;BME280;8746;49.230;9.220;2023-04-25T02:53:43;99254.19;;;7.80;100.00
17260;BME280;8746;49.230;9.220;2023-04-25T02:56:09;99247.53;;;7.71;100.00
17260;BME280;8746;49.230;9.220;2023-04-25T02:58:34;99244.09;;;7.69;100.00
17260;BME280;8746;49.230;9.220;2023-04-25T03:00:59;99244.84;;;7.73;100.00
17260;BME280;8746;49.230;9.220;2023-04-25T03:03:25;99245.94;;;7.67;100.00
17260;BME280;8746;49.230;9.220;2023-04-25T03:05:51;99246.25;;;7.59;100.00
17260;BME280;8746;49.230;9.220;2023-04-25T03:08:17;99245.81;;;7.70;100.00
17260;BME280;8746;49.230;9.220;2023-04-25T03:10:44;99245.09;;;7.66;100.00
17260;BME280;8746;49.230;9.220;2023-04-25T03:13:09;99239.00;;;7.66;100.00
17260;BME280;8746;49.230;9.220;2023-04-25T03:15:35;99236.31;;;7.67;100.00
17260;BME280;8746;49.230;9.220;2023-04-25T03:18:01;99237.16;;;7.68;100.00
17260;BME280;8746;49.230;9.220;2023-04-25T03:20:27;99239.50;;;7.76;100.00
17260;BME280;8746;49.230;9.220;2023-04-25T03:22:52;99243.75;;;7.78;100.00
17260;BME280;8746;49.230;9.220;2023-04-25T03:25:18;99244.19;;;7.67;100.00
17260;BME280;8746;49.230;9.220;2023-04-25T03:27:43;99248.75;;;7.62;100.00
17260;BME280;8746;49.230;9.220;2023-04-25T03:30:08;99236.63;;;7.60;100.00
17260;BME280;8746;49.230;9.220;2023-04-25T03:32:34;99244.59;;;7.57;100.00
17260;BME280;8746;49.230;9.220;2023-04-25T03:35:00;99241.31;;;7.51;100.00
17260;BME280;8746;49.230;9.220;2023-04-25T03:37:25;99239.59;;;7.50;100.00
17260;BME280;8746;49.230;9.220;2023-04-25T03:39:51;99238.72;;;7.50;100.00
17260;BME280;8746;49.230;9.220;2023-04-25T03:42:16;99239.09;;;7.41;100.00
17260;BME280;8746;49.230;9.220;2023-04-25T03:44:42;99243.59;;;7.37;100.00
17260;BME280;8746;49.230;9.220;2023-04-25T03:47:08;99244.88;;;7.27;100.00
17260;BME280;8746;49.230;9.220;2023-04-25T03:49:34;99234.81;;;7.38;100.00
17260;BME280;8746;49.230;9.220;2023-04-25T03:51:59;99239.69;;;7.47;100.00
17260;BME280;8746;49.230;9.220;2023-04-25T03:54:25;99244.56;;;7.34;100.00
17260;BME280;8746;49.230;9.220;2023-04-25T03:56:50;99243.59;;;7.37;100.00
17260;BME280;8746;49.230;9.220;2023-04-25T03:59:16;99242.75;;;7.36;100.00
17260;BME280;8746;49.230;9.220;2023-04-25T04:01:41;99239.94;;;7.41;100.00
17260;BME280;8746;49.230;9.220;2023-04-25T04:04:07;99242.31;;;7.47;100.00
17260;BME280;8746;49.230;9.220;2023-04-25T04:06:32;99250.00;;;7.30;100.00
17260;BME280;8746;49.230;9.220;2023-04-25T04:08:58;99250.91;;;7.29;100.00
17260;BME280;8746;49.230;9.220;2023-04-25T04:11:23;99248.03;;;7.35;100.00
17260;BME280;8746;49.230;9.220;2023-04-25T04:13:49;99250.91;;;7.29;100.00
17260;BME280;8746;49.230;9.220;2023-04-25T04:16:14;99257.75;;;7.33;100.00
17260;BME280;8746;49.230;9.220;2023-04-25T04:18:40;99249.41;;;7.21;100.00
17260;BME280;8746;49.230;9.220;2023-04-25T04:21:05;99251.69;;;7.07;100.00
17260;BME280;8746;49.230;9.220;2023-04-25T04:23:30;99252.66;;;7.04;100.00
17260;BME280;8746;49.230;9.220;2023-04-25T04:25:56;99260.50;;;7.06;100.00
17260;BME280;8746;49.230;9.220;2023-04-25T04:28:21;99265.97;;;7.00;100.00
17260;BME280;8746;49.230;9.220;2023-04-25T04:30:47;99259.75;;;7.02;100.00
17260;BME280;8746;49.230;9.220;2023-04-25T04:33:13;99258.78;;;7.05;100.00
17260;BME280;8746;49.230;9.220;2023-04-25T04:35:40;99261.47;;;7.03;100.00
17260;BME280;8746;49.230;9.220;2023-04-25T04:38:06;99258.88;;;7.02;100.00
17260;BME280;8746;49.230;9.220;2023-04-25T04:40:32;99265.75;;;7.06;100.00
17260;BME280;8746;49.230;9.220;2023-04-25T04:42:57;99258.78;;;7.05;100.00
17260;BME280;8746;49.230;9.220;2023-04-25T04:45:23;99263.81;;;7.11;100.00
17260;BME280;8746;49.230;9.220;2023-04-25T04:47:49;99265.28;;;7.18;100.00
17260;BME280;8746;49.230;9.220;2023-04-25T04:50:14;99266.31;;;7.14;100.00
17260;BME280;8746;49.230;9.220;2023-04-25T04:52:40;99265.53;;;7.12;100.00
17260;BME280;8746;49.230;9.220;2023-04-25T04:55:05;99271.09;;;7.03;100.00
17260;BME280;8746;49.230;9.220;2023-04-25T04:57:31;99276.34;;;7.03;100.00
17260;BME280;8746;49.230;9.220;2023-04-25T04:59:58;99277.59;;;7.16;100.00
17260;BME280;8746;49.230;9.220;2023-04-25T05:02:23;99279.81;;;7.27;100.00
17260;BME280;8746;49.230;9.220;2023-04-25T05:04:49;99286.44;;;7.37;100.00
17260;BME280;8746;49.230;9.220;2023-04-25T05:07:16;99290.09;;;7.33;100.00
17260;BME280;8746;49.230;9.220;2023-04-25T05:09:42;99290.09;;;7.33;100.00
17260;BME280;8746;49.230;9.220;2023-04-25T05:12:07;99289.13;;;7.36;100.00
17260;BME280;8746;49.230;9.220;2023-04-25T05:14:32;99291.91;;;7.31;100.00
17260;BME280;8746;49.230;9.220;2023-04-25T05:16:57;99298.81;;;7.34;100.00
17260;BME280;8746;49.230;9.220;2023-04-25T05:19:23;99300.91;;;7.24;100.00
17260;BME280;8746;49.230;9.220;2023-04-25T05:21:49;99295.88;;;7.19;100.00
17260;BME280;8746;49.230;9.220;2023-04-25T05:24:14;99299.41;;;7.18;100.00
17260;BME280;8746;49.230;9.220;2023-04-25T05:26:39;99293.25;;;7.19;100.00
17260;BME280;8746;49.230;9.220;2023-04-25T05:29:05;99291.22;;;7.26;100.00
17260;BME280;8746;49.230;9.220;2023-04-25T05:31:31;99297.38;;;7.25;100.00
17260;BME280;8746;49.230;9.220;2023-04-25T05:33:57;99299.25;;;7.21;100.00
17260;BME280;8746;49.230;9.220;2023-04-25T05:36:22;99298.19;;;7.27;100.00
17260;BME280;8746;49.230;9.220;2023-04-25T05:38:48;99292.03;;;7.28;100.00
17260;BME280;8746;49.230;9.220;2023-04-25T05:41:13;99294.25;;;7.15;100.00
17260;BME280;8746;49.230;9.220;2023-04-25T05:43:38;99307.13;;;7.21;100.00
17260;BME280;8746;49.230;9.220;2023-04-25T05:46:04;99307.19;;;7.20;100.00
17260;BME280;8746;49.230;9.220;2023-04-25T05:48:29;99302.88;;;7.19;100.00
17260;BME280;8746;49.230;9.220;2023-04-25T05:50:55;99303.84;;;7.16;100.00
17260;BME280;8746;49.230;9.220;2023-04-25T05:53:20;99308.50;;;7.08;100.00
17260;BME280;8746;49.230;9.220;2023-04-25T05:55:47;99314.38;;;7.15;100.00
17260;BME280;8746;49.230;9.220;2023-04-25T05:58:12;99310.56;;;7.24;100.00
17260;BME280;8746;49.230;9.220;2023-04-25T06:00:37;99310.97;;;7.36;100.00
17260;BME280;8746;49.230;9.220;2023-04-25T06:03:03;99318.13;;;7.33;100.00
17260;BME280;8746;49.230;9.220;2023-04-25T06:05:28;99312.22;;;7.26;100.00
17260;BME280;8746;49.230;9.220;2023-04-25T06:07:54;99315.81;;;7.24;100.00
17260;BME280;8746;49.230;9.220;2023-04-25T06:10:19;99316.50;;;7.29;100.00
17260;BME280;8746;49.230;9.220;2023-04-25T06:12:45;99317.59;;;7.47;100.00
17260;BME280;8746;49.230;9.220;2023-04-25T06:15:10;99319.00;;;7.56;100.00
17260;BME280;8746;49.230;9.220;2023-04-25T06:17:36;99313.41;;;7.65;100.00
17260;BME280;8746;49.230;9.220;2023-04-25T06:20:01;99314.16;;;7.68;100.00
17260;BME280;8746;49.230;9.220;2023-04-25T06:22:27;99307.63;;;7.79;100.00
17260;BME280;8746;49.230;9.220;2023-04-25T06:24:52;99306.41;;;7.88;100.00
17260;BME280;8746;49.230;9.220;2023-04-25T06:27:17;99308.78;;;7.94;100.00
17260;BME280;8746;49.230;9.220;2023-04-25T06:29:43;99309.41;;;7.78;100.00
17260;BME280;8746;49.230;9.220;2023-04-25T06:32:08;99311.78;;;7.84;100.00
17260;BME280;8746;49.230;9.220;2023-04-25T06:34:33;99319.41;;;7.68;100.00
17260;BME280;8746;49.230;9.220;2023-04-25T06:36:59;99309.75;;;7.69;100.00
17260;BME280;8746;49.230;9.220;2023-04-25T06:39:24;99307.69;;;7.53;100.00
17260;BME280;8746;49.230;9.220;2023-04-25T06:41:50;99312.75;;;7.60;100.00
17260;BME280;8746;49.230;9.220;2023-04-25T06:44:16;99307.78;;;7.74;100.00
17260;BME280;8746;49.230;9.220;2023-04-25T06:46:41;99313.00;;;7.98;100.00
17260;BME280;8746;49.230;9.220;2023-04-25T06:49:07;99312.88;;;8.01;100.00
17260;BME280;8746;49.230;9.220;2023-04-25T06:51:32;99317.94;;;8.06;100.00
17260;BME280;8746;49.230;9.220;2023-04-25T06:53:57;99315.69;;;8.18;100.00
17260;BME280;8746;49.230;9.220;2023-04-25T06:56:23;99310.34;;;8.42;100.00
17260;BME280;8746;49.230;9.220;2023-04-25T06:58:49;99310.13;;;8.69;100.00
17260;BME280;8746;49.230;9.220;2023-04-25T07:01:14;99314.28;;;8.75;100.00
17260;BME280;8746;49.230;9.220;2023-04-25T07:03:40;99319.09;;;8.65;100.00
17260;BME280;8746;49.230;9.220;2023-04-25T07:06:05;99319.53;;;8.75;100.00
17260;BME280;8746;49.230;9.220;2023-04-25T07:08:31;99325.44;;;8.59;100.00
17260;BME280;8746;49.230;9.220;2023-04-25T07:10:56;99326.91;;;8.66;100.00
17260;BME280;8746;49.230;9.220;2023-04-25T07:13:21;99333.34;;;8.59;100.00
17260;BME280;8746;49.230;9.220;2023-04-25T07:15:47;99333.34;;;8.59;100.00
17260;BME280;8746;49.230;9.220;2023-04-25T07:18:13;99329.47;;;8.46;100.00
17260;BME280;8746;49.230;9.220;2023-04-25T07:20:38;99331.50;;;8.61;100.00
17260;BME280;8746;49.230;9.220;2023-04-25T07:23:04;99325.91;;;8.69;100.00
17260;BME280;8746;49.230;9.220;2023-04-25T07:32:51;99338.28;;;8.88;100.00
17260;BME280;8746;49.230;9.220;2023-04-25T07:35:17;99337.94;;;8.95;100.00
17260;BME280;8746;49.230;9.220;2023-04-25T07:37:42;99336.38;;;8.91;98.43
17260;BME280;8746;49.230;9.220;2023-04-25T07:40:08;99339.88;;;8.92;99.89
17260;BME280;8746;49.230;9.220;2023-04-25T07:42:35;99335.09;;;9.00;99.54
17260;BME280;8746;49.230;9.220;2023-04-25T07:45:00;99340.63;;;8.94;98.58
17260;BME280;8746;49.230;9.220;2023-04-25T07:47:26;99349.41;;;8.74;97.84
17260;BME280;8746;49.230;9.220;2023-04-25T07:49:51;99347.41;;;8.79;97.13
17260;BME280;8746;49.230;9.220;2023-04-25T07:52:17;99346.31;;;8.85;99.41
17260;BME280;8746;49.230;9.220;2023-04-25T07:54:42;99342.09;;;9.01;99.48
17260;BME280;8746;49.230;9.220;2023-04-25T07:57:07;99346.13;;;9.29;99.54
17260;BME280;8746;49.230;9.220;2023-04-25T07:59:33;99353.84;;;9.34;96.84
17260;BME280;8746;49.230;9.220;2023-04-25T08:01:58;99349.72;;;9.47;95.97
17260;BME280;8746;49.230;9.220;2023-04-25T08:04:24;99350.88;;;9.60;94.00
17260;BME280;8746;49.230;9.220;2023-04-25T08:06:50;99345.69;;;9.78;95.00
17260;BME280;8746;49.230;9.220;2023-04-25T08:09:15;99353.28;;;10.03;92.61
17260;BME280;8746;49.230;9.220;2023-04-25T08:11:41;99350.06;;;9.97;89.87
17260;BME280;8746;49.230;9.220;2023-04-25T08:14:07;99358.56;;;10.03;92.87
17260;BME280;8746;49.230;9.220;2023-04-25T08:16:32;99359.22;;;10.26;92.95
17260;BME280;8746;49.230;9.220;2023-04-25T08:18:59;99368.59;;;9.95;92.39
17260;BME280;8746;49.230;9.220;2023-04-25T08:21:24;99363.41;;;9.93;94.34
17260;BME280;8746;49.230;9.220;2023-04-25T08:23:51;99372.75;;;9.82;95.12
17260;BME280;8746;49.230;9.220;2023-04-25T08:26:17;99370.91;;;9.44;91.24
17260;BME280;8746;49.230;9.220;2023-04-25T08:28:42;99377.28;;;9.38;95.19
17260;BME280;8746;49.230;9.220;2023-04-25T08:31:07;99373.22;;;9.71;93.63
17260;BME280;8746;49.230;9.220;2023-04-25T08:33:33;99379.75;;;9.81;89.89
17260;BME280;8746;49.230;9.220;2023-04-25T08:35:58;99381.13;;;10.09;90.59
17260;BME280;8746;49.230;9.220;2023-04-25T08:38:24;99387.03;;;9.95;91.74
17260;BME280;8746;49.230;9.220;2023-04-25T08:40:50;99398.06;;;9.65;91.22
17260;BME280;8746;49.230;9.220;2023-04-25T08:43:19;99397.16;;;9.26;91.19
17260;BME280;8746;49.230;9.220;2023-04-25T08:45:46;99406.94;;;8.59;92.51
17260;BME280;8746;49.230;9.220;2023-04-25T08:48:13;99407.59;;;8.42;95.12
17260;BME280;8746;49.230;9.220;2023-04-25T08:50:57;99414.47;;;7.77;97.53
17260;BME280;8746;49.230;9.220;2023-04-25T08:53:31;99419.44;;;7.61;100.00
17260;BME280;8746;49.230;9.220;2023-04-25T08:55:59;99426.06;;;7.71;100.00
17260;BME280;8746;49.230;9.220;2023-04-25T08:58:25;99427.91;;;7.69;100.00
17260;BME280;8746;49.230;9.220;2023-04-25T09:00:51;99429.38;;;7.76;100.00
17260;BME280;8746;49.230;9.220;2023-04-25T09:03:17;99431.44;;;7.68;100.00
17260;BME280;8746;49.230;9.220;2023-04-25T09:05:42;99428.56;;;7.74;100.00
17260;BME280;8746;49.230;9.220;2023-04-25T09:08:08;99436.69;;;7.92;100.00
17260;BME280;8746;49.230;9.220;2023-04-25T09:10:34;99434.03;;;8.15;100.00
17260;BME280;8746;49.230;9.220;2023-04-25T09:13:06;99440.09;;;8.17;100.00
17260;BME280;8746;49.230;9.220;2023-04-25T09:15:47;99438.31;;;8.42;100.00
17260;BME280;8746;49.230;9.220;2023-04-25T09:18:12;99445.91;;;8.49;100.00
17260;BME280;8746;49.230;9.220;2023-04-25T09:20:44;99446.69;;;8.74;100.00
17260;BME280;8746;49.230;9.220;2023-04-25T09:23:09;99442.53;;;9.11;100.00
17260;BME280;8746;49.230;9.220;2023-04-25T09:25:38;99453.31;;;9.05;100.00
17260;BME280;8746;49.230;9.220;2023-04-25T09:28:09;99447.88;;;9.30;100.00
17260;BME280;8746;49.230;9.220;2023-04-25T09:30:36;99453.91;;;9.32;95.90
17260;BME280;8746;49.230;9.220;2023-04-25T09:33:05;99456.63;;;9.30;99.26
17260;BME280;8746;49.230;9.220;2023-04-25T09:35:35;99452.88;;;9.76;99.50
17260;BME280;8746;49.230;9.220;2023-04-25T09:38:01;99463.75;;;9.89;99.48
17260;BME280;8746;49.230;9.220;2023-04-25T09:40:26;99453.72;;;10.16;97.17
17260;BME280;8746;49.230;9.220;2023-04-25T09:42:52;99459.13;;;10.32;93.75
17260;BME280;8746;49.230;9.220;2023-04-25T09:45:17;99456.72;;;10.47;91.55
17260;BME280;8746;49.230;9.220;2023-04-25T09:47:42;99460.56;;;10.58;93.56
17260;BME280;8746;49.230;9.220;2023-04-25T09:50:15;99461.28;;;10.80;91.14
17260;BME280;8746;49.230;9.220;2023-04-25T09:52:41;99465.13;;;10.92;88.14
17260;BME280;8746;49.230;9.220;2023-04-25T09:55:07;99464.59;;;11.02;82.65
17260;BME280;8746;49.230;9.220;2023-04-25T09:57:32;99466.91;;;11.44;86.68
17260;BME280;8746;49.230;9.220;2023-04-25T10:00:00;99468.16;;;11.36;82.34
17260;BME280;8746;49.230;9.220;2023-04-25T10:02:27;99469.47;;;10.93;81.42
17260;BME280;8746;49.230;9.220;2023-04-25T10:04:53;99469.78;;;10.86;78.14
17260;BME280;8746;49.230;9.220;2023-04-25T10:07:23;99466.25;;;10.68;77.15
17260;BME280;8746;49.230;9.220;2023-04-25T10:09:55;99474.88;;;10.72;78.09
17260;BME280;8746;49.230;9.220;2023-04-25T10:12:24;99472.63;;;10.82;76.25
17260;BME280;8746;49.230;9.220;2023-04-25T10:14:50;99479.03;;;11.13;74.03
17260;BME280;8746;49.230;9.220;2023-04-25T10:17:17;99479.19;;;11.27;75.82
17260;BME280;8746;49.230;9.220;2023-04-25T10:19:43;99481.13;;;11.06;71.52
17260;BME280;8746;49.230;9.220;2023-04-25T10:22:32;99483.06;;;11.37;74.68
17260;BME280;8746;49.230;9.220;2023-04-25T10:24:59;99478.97;;;11.32;69.91
17260;BME280;8746;49.230;9.220;2023-04-25T10:27:27;99485.72;;;11.89;69.28
17260;BME280;8746;49.230;9.220;2023-04-25T10:30:08;99474.22;;;12.23;67.01
17260;BME280;8746;49.230;9.220;2023-04-25T10:32:36;99482.66;;;12.14;66.85
17260;BME280;8746;49.230;9.220;2023-04-25T10:40:22;99474.47;;;12.18;64.35
17260;BME280;8746;49.230;9.220;2023-04-25T10:42:47;99472.53;;;12.22;62.32
17260;BME280;8746;49.230;9.220;2023-04-25T10:45:14;99480.63;;;12.67;60.70
17260;BME280;8746;49.230;9.220;2023-04-25T10:47:43;99477.63;;;12.73;67.75
17260;BME280;8746;49.230;9.220;2023-04-25T10:50:10;99477.59;;;12.89;64.38
17260;BME280;8746;49.230;9.220;2023-04-25T10:52:38;99481.03;;;12.11;66.56
17260;BME280;8746;49.230;9.220;2023-04-25T10:55:05;99488.75;;;11.12;67.88
17260;BME280;8746;49.230;9.220;2023-04-25T10:57:31;99495.00;;;10.92;73.83
17260;BME280;8746;49.230;9.220;2023-04-25T11:02:32;99497.50;;;10.58;78.35
17260;BME280;8746;49.230;9.220;2023-04-25T11:05:02;99501.09;;;10.75;77.14
17260;BME280;8746;49.230;9.220;2023-04-25T11:07:49;99493.72;;;11.36;76.30
17260;BME280;8746;49.230;9.220;2023-04-25T11:10:15;99488.56;;;12.51;71.94
17260;BME280;8746;49.230;9.220;2023-04-25T11:12:41;99488.41;;;12.70;68.20
17260;BME280;8746;49.230;9.220;2023-04-25T11:15:07;99488.63;;;13.58;67.47
17260;BME280;8746;49.230;9.220;2023-04-25T11:17:33;99485.91;;;13.74;62.73
17260;BME280;8746;49.230;9.220;2023-04-25T11:19:59;99485.03;;;13.59;60.81
17260;BME280;8746;49.230;9.220;2023-04-25T11:22:26;99486.75;;;13.30;61.37
17260;BME280;8746;49.230;9.220;2023-04-25T11:24:52;99487.03;;;12.47;61.84
17260;BME280;8746;49.230;9.220;2023-04-25T11:27:17;99490.94;;;12.24;64.56
17260;BME280;8746;49.230;9.220;2023-04-25T11:29:43;99495.41;;;11.72;66.27
17260;BME280;8746;49.230;9.220;2023-04-25T11:32:08;99491.75;;;11.57;68.83
17260;BME280;8746;49.230;9.220;2023-04-25T11:34:34;99492.94;;;11.51;69.35
17260;BME280;8746;49.230;9.220;2023-04-25T11:37:00;99497.03;;;11.57;68.88
17260;BME280;8746;49.230;9.220;2023-04-25T11:39:28;99505.91;;;11.56;68.18
17260;BME280;8746;49.230;9.220;2023-04-25T11:41:54;99494.47;;;11.55;69.89
17260;BME280;8746;49.230;9.220;2023-04-25T11:44:21;99495.50;;;11.86;69.55
17260;BME280;8746;49.230;9.220;2023-04-25T11:46:47;99497.56;;;11.99;68.60
17260;BME280;8746;49.230;9.220;2023-04-25T11:49:13;99493.31;;;12.12;69.37
17260;BME280;8746;49.230;9.220;2023-04-25T11:54:05;99500.56;;;12.09;71.00
17260;BME280;8746;49.230;9.220;2023-04-25T11:56:31;99501.16;;;11.63;64.07
17260;BME280;8746;49.230;9.220;2023-04-25T11:58:57;99514.53;;;11.42;67.45
17260;BME280;8746;49.230;9.220;2023-04-25T12:01:30;99506.75;;;11.21;64.06
17260;BME280;8746;49.230;9.220;2023-04-25T12:03:56;99507.47;;;11.25;63.49
17260;BME280;8746;49.230;9.220;2023-04-25T12:06:25;99509.63;;;11.52;66.75
17260;BME280;8746;49.230;9.220;2023-04-25T12:09:04;99512.88;;;11.57;66.02
17260;BME280;8746;49.230;9.220;2023-04-25T12:11:30;99520.66;;;11.60;65.24
17260;BME280;8746;49.230;9.220;2023-04-25T12:14:03;99513.06;;;11.54;65.11
17260;BME280;8746;49.230;9.220;2023-04-25T12:16:29;99520.53;;;11.28;66.90
17260;BME280;8746;49.230;9.220;2023-04-25T12:18:55;99532.09;;;11.43;66.97
17260;BME280;8746;49.230;9.220;2023-04-25T12:21:22;99532.47;;;11.70;67.84
17260;BME280;8746;49.230;9.220;2023-04-25T12:23:47;99526.75;;;11.62;65.86
17260;BME280;8746;49.230;9.220;2023-04-25T12:26:12;99528.41;;;11.63;65.70
17260;BME280;8746;49.230;9.220;2023-04-25T12:28:37;99522.34;;;11.96;64.89
17260;BME280;8746;49.230;9.220;2023-04-25T12:31:04;99526.63;;;12.64;63.97
17260;BME280;8746;49.230;9.220;2023-04-25T12:33:32;99526.97;;;12.58;65.06
17260;BME280;8746;49.230;9.220;2023-04-25T12:35:58;99538.44;;;11.92;64.72
17260;BME280;8746;49.230;9.220;2023-04-25T12:38:27;99540.00;;;11.61;66.66
17260;BME280;8746;49.230;9.220;2023-04-25T12:40:53;99547.25;;;11.03;64.76
17260;BME280;8746;49.230;9.220;2023-04-25T12:43:19;99549.06;;;11.02;65.38
17260;BME280;8746;49.230;9.220;2023-04-25T12:45:47;99550.31;;;11.13;65.79
17260;BME280;8746;49.230;9.220;2023-04-25T12:48:14;99556.56;;;11.29;64.96
17260;BME280;8746;49.230;9.220;2023-04-25T12:50:39;99556.56;;;11.47;65.19
17260;BME280;8746;49.230;9.220;2023-04-25T12:53:04;99553.75;;;11.50;64.31
17260;BME280;8746;49.230;9.220;2023-04-25T12:55:29;99561.91;;;11.80;65.37
17260;BME280;8746;49.230;9.220;2023-04-25T12:57:55;99565.25;;;11.84;63.95
17260;BME280;8746;49.230;9.220;2023-04-25T13:00:20;99560.59;;;11.89;65.48
17260;BME280;8746;49.230;9.220;2023-04-25T13:02:46;99555.13;;;12.10;65.37
17260;BME280;8746;49.230;9.220;2023-04-25T13:05:14;99570.88;;;12.29;64.04
17260;BME280;8746;49.230;9.220;2023-04-25T13:07:40;99572.88;;;11.90;64.02
17260;BME280;8746;49.230;9.220;2023-04-25T13:10:07;99574.88;;;12.20;63.29
17260;BME280;8746;49.230;9.220;2023-04-25T13:12:33;99565.03;;;12.40;61.00
17260;BME280;8746;49.230;9.220;2023-04-25T13:14:58;99559.13;;;13.30;58.53
17260;BME280;8746;49.230;9.220;2023-04-25T13:17:23;99550.59;;;15.68;53.00
17260;BME280;8746;49.230;9.220;2023-04-25T13:19:49;99553.09;;;15.44;50.93
17260;BME280;8746;49.230;9.220;2023-04-25T13:22:14;99548.47;;;15.20;49.47
17260;BME280;8746;49.230;9.220;2023-04-25T13:24:42;99565.59;;;14.31;54.49